sensor_id;sensor_type;location;lat;lon;timestamp;P1;durP1;ratioP1;P2;durP2;ratioP2
65130;SDS011;51709;54.912;8.316;2023-05-10T00:00:43;3.85;;;2.70;;
65130;SDS011;51709;54.912;8.316;2023-05-10T00:06:03;3.25;;;2.95;;
65130;SDS011;51709;54.912;8.316;2023-05-10T00:11:24;3.47;;;2.50;;
65130;SDS011;51709;54.912;8.316;2023-05-10T00:16:44;2.55;;;2.35;;
65130;SDS011;51709;54.912;8.316;2023-05-10T00:22:05;3.63;;;2.65;;
65130;SDS011;51709;54.912;8.316;2023-05-10T00:27:25;3.47;;;2.53;;
65130;SDS011;51709;54.912;8.316;2023-05-10T00:32:46;4.32;;;2.40;;
65130;SDS011;51709;54.912;8.316;2023-05-10T00:38:08;7.07;;;3.10;;
65130;SDS011;51709;54.912;8.316;2023-05-10T00:43:29;4.82;;;2.60;;
65130;SDS011;51709;54.912;8.316;2023-05-10T00:48:49;2.60;;;2.40;;
65130;SDS011;51709;54.912;8.316;2023-05-10T00:54:10;8.95;;;3.03;;
65130;SDS011;51709;54.912;8.316;2023-05-10T00:59:32;6.32;;;3.17;;
65130;SDS011;51709;54.912;8.316;2023-05-10T01:04:53;4.55;;;2.55;;
65130;SDS011;51709;54.912;8.316;2023-05-10T01:10:14;3.53;;;3.05;;
65130;SDS011;51709;54.912;8.316;2023-05-10T01:15:35;4.85;;;3.17;;
65130;SDS011;51709;54.912;8.316;2023-05-10T01:21:00;4.88;;;3.40;;
65130;SDS011;51709;54.912;8.316;2023-05-10T01:32:31;3.33;;;3.03;;
65130;SDS011;51709;54.912;8.316;2023-05-10T01:38:19;5.38;;;3.10;;
65130;SDS011;51709;54.912;8.316;2023-05-10T01:43:54;3.55;;;2.85;;
65130;SDS011;51709;54.912;8.316;2023-05-10T01:49:25;5.30;;;3.25;;
65130;SDS011;51709;54.912;8.316;2023-05-10T01:54:49;7.32;;;2.83;;
65130;SDS011;51709;54.912;8.316;2023-05-10T02:00:15;3.63;;;2.72;;
65130;SDS011;51709;54.912;8.316;2023-05-10T02:05:38;5.47;;;3.40;;
65130;SDS011;51709;54.912;8.316;2023-05-10T02:11:01;11.57;;;3.08;;
65130;SDS011;51709;54.912;8.316;2023-05-10T02:16:24;3.75;;;3.17;;
65130;SDS011;51709;54.912;8.316;2023-05-10T02:21:47;7.70;;;3.22;;
65130;SDS011;51709;54.912;8.316;2023-05-10T02:27:11;4.65;;;3.00;;
65130;SDS011;51709;54.912;8.316;2023-05-10T02:32:33;5.93;;;3.60;;
65130;SDS011;51709;54.912;8.316;2023-05-10T02:37:56;4.30;;;3.60;;
65130;SDS011;51709;54.912;8.316;2023-05-10T02:43:18;5.20;;;3.00;;
65130;SDS011;51709;54.912;8.316;2023-05-10T02:48:43;6.75;;;3.30;;
65130;SDS011;51709;54.912;8.316;2023-05-10T02:54:06;8.27;;;3.83;;
65130;SDS011;51709;54.912;8.316;2023-05-10T02:59:32;3.28;;;2.95;;
65130;SDS011;51709;54.912;8.316;2023-05-10T03:04:53;4.00;;;3.42;;
65130;SDS011;51709;54.912;8.316;2023-05-10T03:10:15;5.15;;;3.55;;
65130;SDS011;51709;54.912;8.316;2023-05-10T03:16:05;3.53;;;3.22;;
65130;SDS011;51709;54.912;8.316;2023-05-10T03:21:30;4.18;;;3.78;;
65130;SDS011;51709;54.912;8.316;2023-05-10T03:26:52;3.50;;;3.15;;
65130;SDS011;51709;54.912;8.316;2023-05-10T03:32:17;9.82;;;3.83;;
65130;SDS011;51709;54.912;8.316;2023-05-10T03:37:39;4.93;;;3.85;;
65130;SDS011;51709;54.912;8.316;2023-05-10T03:43:00;4.07;;;3.45;;
65130;SDS011;51709;54.912;8.316;2023-05-10T03:48:21;6.53;;;4.50;;
65130;SDS011;51709;54.912;8.316;2023-05-10T03:53:41;8.23;;;4.25;;
65130;SDS011;51709;54.912;8.316;2023-05-10T03:59:02;8.15;;;4.18;;
65130;SDS011;51709;54.912;8.316;2023-05-10T04:04:27;5.40;;;4.05;;
65130;SDS011;51709;54.912;8.316;2023-05-10T04:09:47;6.20;;;3.95;;
65130;SDS011;51709;54.912;8.316;2023-05-10T04:15:08;7.68;;;4.72;;
65130;SDS011;51709;54.912;8.316;2023-05-10T04:20:31;8.77;;;4.57;;
65130;SDS011;51709;54.912;8.316;2023-05-10T04:25:58;6.45;;;4.32;;
65130;SDS011;51709;54.912;8.316;2023-05-10T04:31:20;4.68;;;4.25;;
65130;SDS011;51709;54.912;8.316;2023-05-10T04:36:41;5.07;;;4.57;;
65130;SDS011;51709;54.912;8.316;2023-05-10T04:42:02;7.35;;;5.25;;
65130;SDS011;51709;54.912;8.316;2023-05-10T04:47:23;6.72;;;4.43;;
65130;SDS011;51709;54.912;8.316;2023-05-10T04:52:43;7.85;;;4.63;;
65130;SDS011;51709;54.912;8.316;2023-05-10T05:06:02;7.90;;;4.43;;
65130;SDS011;51709;54.912;8.316;2023-05-10T05:11:23;8.25;;;4.53;;
65130;SDS011;51709;54.912;8.316;2023-05-10T05:16:45;10.55;;;4.57;;
65130;SDS011;51709;54.912;8.316;2023-05-10T05:22:06;10.20;;;4.90;;
65130;SDS011;51709;54.912;8.316;2023-05-10T05:27:27;5.75;;;4.28;;
65130;SDS011;51709;54.912;8.316;2023-05-10T05:32:48;8.40;;;4.75;;
65130;SDS011;51709;54.912;8.316;2023-05-10T05:38:08;5.03;;;4.07;;
65130;SDS011;51709;54.912;8.316;2023-05-10T05:43:28;4.38;;;3.95;;
65130;SDS011;51709;54.912;8.316;2023-05-10T05:48:49;14.50;;;4.60;;
65130;SDS011;51709;54.912;8.316;2023-05-10T05:54:10;5.72;;;5.10;;
65130;SDS011;51709;54.912;8.316;2023-05-10T05:59:31;12.63;;;4.65;;
65130;SDS011;51709;54.912;8.316;2023-05-10T06:04:51;11.40;;;4.75;;
65130;SDS011;51709;54.912;8.316;2023-05-10T06:10:12;7.72;;;4.10;;
65130;SDS011;51709;54.912;8.316;2023-05-10T06:15:32;8.60;;;5.07;;
65130;SDS011;51709;54.912;8.316;2023-05-10T06:20:53;9.35;;;4.35;;
65130;SDS011;51709;54.912;8.316;2023-05-10T06:26:14;6.38;;;4.50;;
65130;SDS011;51709;54.912;8.316;2023-05-10T06:31:34;6.05;;;4.47;;
65130;SDS011;51709;54.912;8.316;2023-05-10T06:36:55;4.95;;;4.05;;
65130;SDS011;51709;54.912;8.316;2023-05-10T06:42:15;5.82;;;5.15;;
65130;SDS011;51709;54.912;8.316;2023-05-10T06:47:39;11.60;;;4.47;;
65130;SDS011;51709;54.912;8.316;2023-05-10T06:53:00;13.55;;;5.30;;
65130;SDS011;51709;54.912;8.316;2023-05-10T06:58:24;7.70;;;4.45;;
65130;SDS011;51709;54.912;8.316;2023-05-10T07:03:45;7.22;;;4.30;;
65130;SDS011;51709;54.912;8.316;2023-05-10T07:09:06;4.70;;;4.10;;
65130;SDS011;51709;54.912;8.316;2023-05-10T07:14:27;6.82;;;4.78;;
65130;SDS011;51709;54.912;8.316;2023-05-10T07:19:48;5.00;;;4.50;;
65130;SDS011;51709;54.912;8.316;2023-05-10T07:25:09;6.18;;;4.32;;
65130;SDS011;51709;54.912;8.316;2023-05-10T07:30:30;6.18;;;4.68;;
65130;SDS011;51709;54.912;8.316;2023-05-10T07:35:50;8.90;;;4.85;;
65130;SDS011;51709;54.912;8.316;2023-05-10T07:41:12;7.82;;;5.43;;
65130;SDS011;51709;54.912;8.316;2023-05-10T07:46:32;6.15;;;4.82;;
65130;SDS011;51709;54.912;8.316;2023-05-10T07:51:53;7.85;;;4.72;;
65130;SDS011;51709;54.912;8.316;2023-05-10T07:57:14;10.80;;;4.68;;
65130;SDS011;51709;54.912;8.316;2023-05-10T08:02:37;9.25;;;5.00;;
65130;SDS011;51709;54.912;8.316;2023-05-10T08:07:58;6.05;;;4.22;;
65130;SDS011;51709;54.912;8.316;2023-05-10T08:13:19;9.27;;;4.68;;
65130;SDS011;51709;54.912;8.316;2023-05-10T08:18:40;5.70;;;5.10;;
65130;SDS011;51709;54.912;8.316;2023-05-10T08:24:01;5.72;;;4.38;;
65130;SDS011;51709;54.912;8.316;2023-05-10T08:29:22;9.35;;;5.25;;
65130;SDS011;51709;54.912;8.316;2023-05-10T08:34:42;7.07;;;5.05;;
65130;SDS011;51709;54.912;8.316;2023-05-10T08:40:03;12.98;;;5.55;;
65130;SDS011;51709;54.912;8.316;2023-05-10T08:45:24;6.50;;;5.90;;
65130;SDS011;51709;54.912;8.316;2023-05-10T08:50:52;6.60;;;5.82;;
65130;SDS011;51709;54.912;8.316;2023-05-10T08:56:18;5.95;;;5.30;;
65130;SDS011;51709;54.912;8.316;2023-05-10T09:01:40;9.77;;;5.10;;
65130;SDS011;51709;54.912;8.316;2023-05-10T09:12:26;8.98;;;6.15;;
65130;SDS011;51709;54.912;8.316;2023-05-10T09:17:47;7.43;;;6.20;;
65130;SDS011;51709;54.912;8.316;2023-05-10T09:23:09;6.93;;;6.10;;
65130;SDS011;51709;54.912;8.316;2023-05-10T09:28:34;9.27;;;6.40;;
65130;SDS011;51709;54.912;8.316;2023-05-10T09:34:10;8.00;;;5.38;;
65130;SDS011;51709;54.912;8.316;2023-05-10T09:39:34;7.75;;;6.60;;
65130;SDS011;51709;54.912;8.316;2023-05-10T09:45:05;12.27;;;6.15;;
65130;SDS011;51709;54.912;8.316;2023-05-10T09:50:27;9.88;;;7.03;;
65130;SDS011;51709;54.912;8.316;2023-05-10T09:55:48;15.82;;;7.22;;
65130;SDS011;51709;54.912;8.316;2023-05-10T10:01:11;10.00;;;6.65;;
65130;SDS011;51709;54.912;8.316;2023-05-10T10:06:39;7.90;;;6.95;;
65130;SDS011;51709;54.912;8.316;2023-05-10T10:12:00;9.07;;;7.75;;
65130;SDS011;51709;54.912;8.316;2023-05-10T10:17:22;9.48;;;7.97;;
65130;SDS011;51709;54.912;8.316;2023-05-10T10:22:48;9.38;;;7.85;;
65130;SDS011;51709;54.912;8.316;2023-05-10T10:28:12;10.57;;;7.97;;
65130;SDS011;51709;54.912;8.316;2023-05-10T10:34:00;9.77;;;7.85;;
65130;SDS011;51709;54.912;8.316;2023-05-10T10:39:25;16.90;;;8.60;;
65130;SDS011;51709;54.912;8.316;2023-05-10T10:44:47;10.75;;;8.77;;
65130;SDS011;51709;54.912;8.316;2023-05-10T10:50:07;10.15;;;8.30;;
65130;SDS011;51709;54.912;8.316;2023-05-10T10:55:28;10.68;;;7.97;;
65130;SDS011;51709;54.912;8.316;2023-05-10T11:00:50;9.05;;;8.02;;
65130;SDS011;51709;54.912;8.316;2023-05-10T11:06:33;12.18;;;9.68;;
65130;SDS011;51709;54.912;8.316;2023-05-10T11:11:55;10.65;;;8.07;;
65130;SDS011;51709;54.912;8.316;2023-05-10T11:17:23;9.43;;;8.20;;
65130;SDS011;51709;54.912;8.316;2023-05-10T11:22:49;11.63;;;8.05;;
65130;SDS011;51709;54.912;8.316;2023-05-10T11:28:13;13.38;;;7.95;;
65130;SDS011;51709;54.912;8.316;2023-05-10T11:33:47;9.90;;;8.70;;
65130;SDS011;51709;54.912;8.316;2023-05-10T11:39:08;13.10;;;8.25;;
65130;SDS011;51709;54.912;8.316;2023-05-10T11:44:32;14.85;;;8.57;;
65130;SDS011;51709;54.912;8.316;2023-05-10T11:49:53;19.43;;;9.40;;
65130;SDS011;51709;54.912;8.316;2023-05-10T11:55:14;16.70;;;10.45;;
65130;SDS011;51709;54.912;8.316;2023-05-10T12:00:34;23.52;;;12.30;;
65130;SDS011;51709;54.912;8.316;2023-05-10T12:05:55;14.70;;;9.68;;
65130;SDS011;51709;54.912;8.316;2023-05-10T12:11:16;12.38;;;9.38;;
65130;SDS011;51709;54.912;8.316;2023-05-10T12:16:38;17.75;;;10.85;;
65130;SDS011;51709;54.912;8.316;2023-05-10T12:21:59;15.15;;;10.25;;
65130;SDS011;51709;54.912;8.316;2023-05-10T12:27:19;16.77;;;10.00;;
65130;SDS011;51709;54.912;8.316;2023-05-10T12:32:41;14.02;;;9.85;;
65130;SDS011;51709;54.912;8.316;2023-05-10T12:38:22;13.40;;;10.25;;
65130;SDS011;51709;54.912;8.316;2023-05-10T12:43:47;11.48;;;9.48;;
65130;SDS011;51709;54.912;8.316;2023-05-10T12:49:08;10.73;;;9.05;;
65130;SDS011;51709;54.912;8.316;2023-05-10T12:54:29;15.73;;;9.43;;
65130;SDS011;51709;54.912;8.316;2023-05-10T12:59:50;11.05;;;9.27;;
65130;SDS011;51709;54.912;8.316;2023-05-10T13:05:11;13.15;;;10.48;;
65130;SDS011;51709;54.912;8.316;2023-05-10T13:10:33;15.85;;;10.07;;
65130;SDS011;51709;54.912;8.316;2023-05-10T13:15:54;12.85;;;9.07;;
65130;SDS011;51709;54.912;8.316;2023-05-10T13:21:14;12.25;;;8.40;;
65130;SDS011;51709;54.912;8.316;2023-05-10T13:26:35;11.40;;;8.70;;
65130;SDS011;51709;54.912;8.316;2023-05-10T13:31:57;12.15;;;8.18;;
65130;SDS011;51709;54.912;8.316;2023-05-10T13:37:19;10.50;;;8.77;;
65130;SDS011;51709;54.912;8.316;2023-05-10T13:42:40;16.73;;;9.50;;
65130;SDS011;51709;54.912;8.316;2023-05-10T13:48:01;12.93;;;9.98;;
65130;SDS011;51709;54.912;8.316;2023-05-10T13:53:22;14.02;;;9.43;;
65130;SDS011;51709;54.912;8.316;2023-05-10T13:58:42;13.48;;;9.88;;
65130;SDS011;51709;54.912;8.316;2023-05-10T14:04:03;15.43;;;10.38;;
65130;SDS011;51709;54.912;8.316;2023-05-10T14:09:24;13.02;;;10.25;;
65130;SDS011;51709;54.912;8.316;2023-05-10T14:14:44;15.43;;;8.98;;
65130;SDS011;51709;54.912;8.316;2023-05-10T14:20:06;12.10;;;9.75;;
65130;SDS011;51709;54.912;8.316;2023-05-10T14:25:27;12.85;;;8.23;;
65130;SDS011;51709;54.912;8.316;2023-05-10T14:30:48;13.00;;;8.40;;
65130;SDS011;51709;54.912;8.316;2023-05-10T14:36:08;11.95;;;9.70;;
65130;SDS011;51709;54.912;8.316;2023-05-10T14:41:29;11.15;;;8.77;;
65130;SDS011;51709;54.912;8.316;2023-05-10T14:46:50;11.40;;;8.10;;
65130;SDS011;51709;54.912;8.316;2023-05-10T14:52:11;15.30;;;10.50;;
65130;SDS011;51709;54.912;8.316;2023-05-10T14:57:32;12.48;;;8.98;;
65130;SDS011;51709;54.912;8.316;2023-05-10T15:02:53;23.38;;;11.23;;
65130;SDS011;51709;54.912;8.316;2023-05-10T15:08:15;26.08;;;13.77;;
65130;SDS011;51709;54.912;8.316;2023-05-10T15:13:35;34.10;;;14.80;;
65130;SDS011;51709;54.912;8.316;2023-05-10T15:18:57;20.73;;;9.88;;
65130;SDS011;51709;54.912;8.316;2023-05-10T15:24:17;9.13;;;4.32;;
65130;SDS011;51709;54.912;8.316;2023-05-10T15:29:38;4.68;;;3.70;;
65130;SDS011;51709;54.912;8.316;2023-05-10T15:34:58;2.92;;;2.70;;
65130;SDS011;51709;54.912;8.316;2023-05-10T15:40:19;5.68;;;3.53;;
65130;SDS011;51709;54.912;8.316;2023-05-10T15:45:41;5.25;;;2.90;;
65130;SDS011;51709;54.912;8.316;2023-05-10T15:51:01;2.60;;;2.38;;
65130;SDS011;51709;54.912;8.316;2023-05-10T15:56:22;2.95;;;2.65;;
65130;SDS011;51709;54.912;8.316;2023-05-10T16:01:42;3.33;;;2.50;;
65130;SDS011;51709;54.912;8.316;2023-05-10T16:07:03;4.32;;;3.60;;
65130;SDS011;51709;54.912;8.316;2023-05-10T16:12:24;6.47;;;4.07;;
65130;SDS011;51709;54.912;8.316;2023-05-10T16:17:45;9.77;;;5.30;;
65130;SDS011;51709;54.912;8.316;2023-05-10T16:23:06;6.30;;;4.68;;
65130;SDS011;51709;54.912;8.316;2023-05-10T16:28:27;7.13;;;4.45;;
65130;SDS011;51709;54.912;8.316;2023-05-10T16:33:48;8.15;;;5.03;;
65130;SDS011;51709;54.912;8.316;2023-05-10T16:39:08;7.22;;;4.18;;
65130;SDS011;51709;54.912;8.316;2023-05-10T16:44:29;2.60;;;2.25;;
65130;SDS011;51709;54.912;8.316;2023-05-10T16:49:50;5.60;;;4.63;;
65130;SDS011;51709;54.912;8.316;2023-05-10T16:55:11;6.07;;;3.38;;
65130;SDS011;51709;54.912;8.316;2023-05-10T17:00:31;8.68;;;4.07;;
65130;SDS011;51709;54.912;8.316;2023-05-10T17:05:52;4.72;;;4.15;;
65130;SDS011;51709;54.912;8.316;2023-05-10T17:11:13;5.60;;;3.45;;
65130;SDS011;51709;54.912;8.316;2023-05-10T17:16:33;6.15;;;3.95;;
65130;SDS011;51709;54.912;8.316;2023-05-10T17:21:55;5.25;;;4.40;;
65130;SDS011;51709;54.912;8.316;2023-05-10T17:27:15;3.42;;;3.13;;
65130;SDS011;51709;54.912;8.316;2023-05-10T17:32:36;7.70;;;4.22;;
65130;SDS011;51709;54.912;8.316;2023-05-10T17:37:56;9.77;;;5.28;;
65130;SDS011;51709;54.912;8.316;2023-05-10T17:43:17;20.35;;;7.25;;
65130;SDS011;51709;54.912;8.316;2023-05-10T17:48:38;7.07;;;4.32;;
65130;SDS011;51709;54.912;8.316;2023-05-10T17:53:58;20.92;;;9.95;;
65130;SDS011;51709;54.912;8.316;2023-05-10T17:59:19;21.40;;;10.38;;
65130;SDS011;51709;54.912;8.316;2023-05-10T18:04:39;16.60;;;8.23;;
65130;SDS011;51709;54.912;8.316;2023-05-10T18:10:00;15.45;;;8.82;;
65130;SDS011;51709;54.912;8.316;2023-05-10T18:15:21;15.68;;;9.00;;
65130;SDS011;51709;54.912;8.316;2023-05-10T18:20:41;19.48;;;9.07;;
65130;SDS011;51709;54.912;8.316;2023-05-10T18:26:02;16.65;;;7.88;;
65130;SDS011;51709;54.912;8.316;2023-05-10T18:31:23;17.42;;;8.40;;
65130;SDS011;51709;54.912;8.316;2023-05-10T18:36:44;14.10;;;7.43;;
65130;SDS011;51709;54.912;8.316;2023-05-10T18:42:04;12.38;;;4.22;;
65130;SDS011;51709;54.912;8.316;2023-05-10T18:47:24;15.90;;;6.65;;
65130;SDS011;51709;54.912;8.316;2023-05-10T18:52:46;5.28;;;3.72;;
65130;SDS011;51709;54.912;8.316;2023-05-10T18:58:06;5.82;;;4.22;;
65130;SDS011;51709;54.912;8.316;2023-05-10T19:03:28;6.88;;;3.47;;
65130;SDS011;51709;54.912;8.316;2023-05-10T19:08:49;2.05;;;1.67;;
65130;SDS011;51709;54.912;8.316;2023-05-10T19:14:10;2.53;;;2.13;;
65130;SDS011;51709;54.912;8.316;2023-05-10T19:19:30;1.67;;;1.58;;
65130;SDS011;51709;54.912;8.316;2023-05-10T19:24:51;2.53;;;2.03;;
65130;SDS011;51709;54.912;8.316;2023-05-10T19:30:13;2.28;;;1.80;;
65130;SDS011;51709;54.912;8.316;2023-05-10T19:35:33;1.88;;;1.08;;
65130;SDS011;51709;54.912;8.316;2023-05-10T19:40:54;1.10;;;1.08;;
65130;SDS011;51709;54.912;8.316;2023-05-10T19:51:39;4.72;;;0.75;;
65130;SDS011;51709;54.912;8.316;2023-05-10T19:57:01;5.70;;;1.33;;
65130;SDS011;51709;54.912;8.316;2023-05-10T20:02:21;7.30;;;1.25;;
65130;SDS011;51709;54.912;8.316;2023-05-10T20:07:42;2.03;;;1.60;;
65130;SDS011;51709;54.912;8.316;2023-05-10T20:13:02;4.03;;;1.58;;
65130;SDS011;51709;54.912;8.316;2023-05-10T20:18:24;3.60;;;2.38;;
65130;SDS011;51709;54.912;8.316;2023-05-10T20:23:44;4.28;;;2.28;;
65130;SDS011;51709;54.912;8.316;2023-05-10T20:29:07;2.25;;;1.55;;
65130;SDS011;51709;54.912;8.316;2023-05-10T20:34:28;2.30;;;1.58;;
65130;SDS011;51709;54.912;8.316;2023-05-10T20:39:48;2.75;;;1.90;;
65130;SDS011;51709;54.912;8.316;2023-05-10T20:45:09;3.45;;;1.73;;
65130;SDS011;51709;54.912;8.316;2023-05-10T20:50:30;1.83;;;1.45;;
65130;SDS011;51709;54.912;8.316;2023-05-10T20:55:51;4.80;;;2.45;;
65130;SDS011;51709;54.912;8.316;2023-05-10T21:01:12;2.97;;;1.75;;
65130;SDS011;51709;54.912;8.316;2023-05-10T21:06:33;2.40;;;1.70;;
65130;SDS011;51709;54.912;8.316;2023-05-10T21:11:54;4.03;;;1.50;;
65130;SDS011;51709;54.912;8.316;2023-05-10T21:17:15;2.78;;;2.05;;
65130;SDS011;51709;54.912;8.316;2023-05-10T21:22:39;2.90;;;1.98;;
65130;SDS011;51709;54.912;8.316;2023-05-10T21:27:59;1.50;;;1.35;;
65130;SDS011;51709;54.912;8.316;2023-05-10T21:33:20;2.90;;;2.10;;
65130;SDS011;51709;54.912;8.316;2023-05-10T21:38:40;9.07;;;1.80;;
65130;SDS011;51709;54.912;8.316;2023-05-10T21:44:03;2.42;;;1.88;;
65130;SDS011;51709;54.912;8.316;2023-05-10T21:49:24;2.97;;;1.83;;
65130;SDS011;51709;54.912;8.316;2023-05-10T21:54:45;6.97;;;2.60;;
65130;SDS011;51709;54.912;8.316;2023-05-10T22:00:06;8.27;;;2.67;;
65130;SDS011;51709;54.912;8.316;2023-05-10T22:05:27;6.38;;;1.92;;
65130;SDS011;51709;54.912;8.316;2023-05-10T22:10:47;4.97;;;1.88;;
65130;SDS011;51709;54.912;8.316;2023-05-10T22:16:08;2.05;;;1.27;;
65130;SDS011;51709;54.912;8.316;2023-05-10T22:21:29;10.70;;;1.83;;
65130;SDS011;51709;54.912;8.316;2023-05-10T22:26:52;6.35;;;1.90;;
65130;SDS011;51709;54.912;8.316;2023-05-10T22:32:13;7.47;;;1.60;;
65130;SDS011;51709;54.912;8.316;2023-05-10T22:37:34;3.25;;;1.15;;
65130;SDS011;51709;54.912;8.316;2023-05-10T22:42:55;2.97;;;1.15;;
65130;SDS011;51709;54.912;8.316;2023-05-10T22:48:15;9.13;;;2.53;;
65130;SDS011;51709;54.912;8.316;2023-05-10T22:53:36;5.63;;;1.48;;
65130;SDS011;51709;54.912;8.316;2023-05-10T22:58:57;3.22;;;1.48;;
65130;SDS011;51709;54.912;8.316;2023-05-10T23:04:18;1.75;;;1.60;;
65130;SDS011;51709;54.912;8.316;2023-05-10T23:09:38;1.30;;;1.05;;
65130;SDS011;51709;54.912;8.316;2023-05-10T23:14:59;1.83;;;1.70;;
65130;SDS011;51709;54.912;8.316;2023-05-10T23:20:20;10.23;;;1.90;;
65130;SDS011;51709;54.912;8.316;2023-05-10T23:25:41;7.70;;;1.80;;
65130;SDS011;51709;54.912;8.316;2023-05-10T23:31:01;1.85;;;1.60;;
65130;SDS011;51709;54.912;8.316;2023-05-10T23:36:22;1.35;;;1.10;;
65130;SDS011;51709;54.912;8.316;2023-05-10T23:41:43;3.33;;;1.25;;
65130;SDS011;51709;54.912;8.316;2023-05-10T23:47:04;13.23;;;1.38;;
65130;SDS011;51709;54.912;8.316;2023-05-10T23:52:25;4.97;;;1.52;;
65130;SDS011;51709;54.912;8.316;2023-05-10T23:57:46;0.93;;;0.82;;
